Time;durP1;ratioP1;P1;durP2;ratioP2;P2;SDS_P1;SDS_P2;PMS_P1;PMS_P2;Temp;Humidity;BMP_temperature;BMP_pressure;BME280_temperature;BME280_humidity;BME280_pressure;Samples;Min_cycle;Max_cycle;Signal;HPM_P1;HPM_P2
2022/01/07 00:01:19;;;;;;;;;18.00;17.25;;;;;;;;5005626;28;11580;-82
2022/01/07 00:03:46;;;;;;;;;18.25;15.75;;;;;;;;5004601;28;11595;-81
2022/01/07 00:06:15;;;;;;;;;12.50;12.50;;;;;;;;5004703;28;11721;-76
2022/01/07 00:08:46;;;;;;;;;17.50;14.50;;;;;;;;5004959;28;12451;-78
2022/01/07 00:11:16;;;;;;;;;16.50;15.75;;;;;;;;5003109;28;11728;-77
2022/01/07 00:13:44;;;;;;;;;15.50;13.50;;;;;;;;5005507;28;11729;-77
2022/01/07 00:16:11;;;;;;;;;13.00;9.00;;;;;;;;5002845;28;11602;-77
2022/01/07 00:18:40;;;;;;;;;14.25;12.50;;;;;;;;5005671;28;11582;-75
2022/01/07 00:21:07;;;;;;;;;11.25;9.50;;;;;;;;5002271;28;11587;-77
2022/01/07 00:23:36;;;;;;;;;13.25;11.75;;;;;;;;5005235;28;11568;-77
2022/01/07 00:26:04;;;;;;;;;14.50;13.25;;;;;;;;5003935;28;12479;-79
2022/01/07 00:28:32;;;;;;;;;13.75;10.50;;;;;;;;5005253;28;11719;-78
2022/01/07 00:30:59;;;;;;;;;13.00;11.00;;;;;;;;5002908;28;11694;-79
2022/01/07 00:33:45;;;;;;;;;14.25;11.75;;;;;;;;5005201;28;11597;-76
2022/01/07 00:36:13;;;;;;;;;13.50;13.50;;;;;;;;5004392;28;11585;-76
2022/01/07 00:39:05;;;;;;;;;11.00;11.00;;;;;;;;5003930;28;11709;-79
2022/01/07 00:41:32;;;;;;;;;12.50;11.00;;;;;;;;4999765;28;11635;-78
2022/01/07 00:44:00;;;;;;;;;11.00;11.00;;;;;;;;5004693;28;11656;-75
2022/01/07 00:46:27;;;;;;;;;16.00;12.75;;;;;;;;5003255;28;11650;-75
2022/01/07 00:48:54;;;;;;;;;14.75;12.50;;;;;;;;5003622;28;11599;-79
2022/01/07 00:51:22;;;;;;;;;12.25;11.50;;;;;;;;5002631;28;11612;-80
2022/01/07 00:53:49;;;;;;;;;13.00;11.00;;;;;;;;5005191;28;11639;-77
2022/01/07 00:56:19;;;;;;;;;15.50;11.50;;;;;;;;5006362;28;11708;-77
2022/01/07 00:58:47;;;;;;;;;15.25;12.00;;;;;;;;5004438;28;11627;-81
2022/01/07 01:01:14;;;;;;;;;11.00;8.00;;;;;;;;5003337;28;11541;-82
2022/01/07 01:03:42;;;;;;;;;13.50;13.50;;;;;;;;5003872;28;11591;-81
2022/01/07 01:06:09;;;;;;;;;14.25;12.25;;;;;;;;5001802;28;11646;-83
2022/01/07 01:08:36;;;;;;;;;12.50;12.50;;;;;;;;5001839;28;11650;-76
2022/01/07 01:11:04;;;;;;;;;15.75;13.25;;;;;;;;5000251;28;11728;-82
2022/01/07 01:13:33;;;;;;;;;11.00;11.00;;;;;;;;5004500;28;11603;-78
2022/01/07 01:16:00;;;;;;;;;13.25;12.00;;;;;;;;5004972;28;11643;-81
2022/01/07 01:18:27;;;;;;;;;12.00;11.50;;;;;;;;5003708;28;11724;-81
2022/01/07 01:20:55;;;;;;;;;12.00;12.00;;;;;;;;5003138;28;11641;-79
2022/01/07 01:23:22;;;;;;;;;16.75;15.75;;;;;;;;5003645;28;11711;-77
2022/01/07 01:25:50;;;;;;;;;13.25;12.25;;;;;;;;5004433;28;11687;-76
2022/01/07 01:28:17;;;;;;;;;13.50;13.00;;;;;;;;5004408;28;11744;-78
2022/01/07 01:30:46;;;;;;;;;15.50;14.00;;;;;;;;5006665;28;11518;-80
2022/01/07 01:33:13;;;;;;;;;19.75;19.00;;;;;;;;5004616;28;11691;-77
2022/01/07 01:35:41;;;;;;;;;14.25;12.00;;;;;;;;5002995;28;11618;-80
2022/01/07 01:38:08;;;;;;;;;14.00;12.00;;;;;;;;5003155;28;11700;-80
2022/01/07 01:40:35;;;;;;;;;15.00;12.25;;;;;;;;5001289;28;11632;-77
2022/01/07 01:43:03;;;;;;;;;15.50;15.00;;;;;;;;5003290;28;12969;-80
2022/01/07 01:45:30;;;;;;;;;15.75;15.00;;;;;;;;5002679;28;12099;-80
2022/01/07 01:47:59;;;;;;;;;9.50;8.00;;;;;;;;5000225;28;11610;-79
2022/01/07 01:50:26;;;;;;;;;12.00;12.00;;;;;;;;5000037;28;11580;-81
2022/01/07 01:52:56;;;;;;;;;14.25;12.75;;;;;;;;4998022;28;11625;-79
2022/01/07 01:55:25;;;;;;;;;13.75;12.75;;;;;;;;5002760;28;11577;-81
2022/01/07 01:57:56;;;;;;;;;10.25;10.25;;;;;;;;5002527;28;11588;-80
2022/01/07 02:00:25;;;;;;;;;14.50;9.25;;;;;;;;5004348;28;11530;-77
2022/01/07 02:02:52;;;;;;;;;8.50;8.50;;;;;;;;5007290;28;11623;-76
2022/01/07 02:05:22;;;;;;;;;11.50;10.50;;;;;;;;5005841;28;11604;-78
2022/01/07 02:07:49;;;;;;;;;13.00;10.50;;;;;;;;5005389;28;11764;-77
2022/01/07 02:10:17;;;;;;;;;10.25;10.25;;;;;;;;5007210;28;11725;-75
2022/01/07 02:12:45;;;;;;;;;13.75;12.00;;;;;;;;5007837;28;11762;-75
2022/01/07 02:15:14;;;;;;;;;13.50;11.50;;;;;;;;5006726;28;11608;-79
2022/01/07 02:17:43;;;;;;;;;17.00;13.00;;;;;;;;5007763;28;11600;-78
2022/01/07 02:20:14;;;;;;;;;13.25;12.25;;;;;;;;5007605;28;11630;-76
2022/01/07 02:22:42;;;;;;;;;15.00;11.75;;;;;;;;5008052;28;11714;-75
2022/01/07 02:25:10;;;;;;;;;17.00;13.00;;;;;;;;5005448;28;11569;-78
2022/01/07 02:27:39;;;;;;;;;10.75;9.00;;;;;;;;5007615;28;11732;-78
2022/01/07 02:30:10;;;;;;;;;12.75;12.25;;;;;;;;5005798;28;11588;-77
2022/01/07 02:32:38;;;;;;;;;11.00;9.00;;;;;;;;5007649;28;11634;-76
2022/01/07 02:35:06;;;;;;;;;11.50;11.50;;;;;;;;5007263;28;11683;-76
2022/01/07 02:37:35;;;;;;;;;7.50;7.50;;;;;;;;5006880;28;11662;-79
2022/01/07 02:40:03;;;;;;;;;9.00;9.00;;;;;;;;5006958;28;11539;-78
2022/01/07 02:42:30;;;;;;;;;14.00;12.00;;;;;;;;5006122;28;12383;-77
2022/01/07 02:44:58;;;;;;;;;10.75;10.75;;;;;;;;5007289;28;11732;-77
2022/01/07 02:47:28;;;;;;;;;7.00;7.00;;;;;;;;5006085;28;11659;-79
2022/01/07 02:49:55;;;;;;;;;11.50;11.50;;;;;;;;5006829;28;11671;-74
2022/01/07 02:52:22;;;;;;;;;13.00;12.00;;;;;;;;5006659;28;12415;-79
2022/01/07 02:54:51;;;;;;;;;9.75;9.75;;;;;;;;5007080;28;11622;-78
2022/01/07 02:57:18;;;;;;;;;10.25;10.25;;;;;;;;5007126;28;11603;-80
2022/01/07 02:59:46;;;;;;;;;10.50;10.50;;;;;;;;5005284;28;11588;-81
2022/01/07 03:02:13;;;;;;;;;13.00;9.00;;;;;;;;5004700;28;12490;-75
2022/01/07 03:04:40;;;;;;;;;10.00;10.00;;;;;;;;5001326;28;11628;-79
2022/01/07 03:07:09;;;;;;;;;9.50;9.00;;;;;;;;5007115;28;11586;-79
2022/01/07 03:09:37;;;;;;;;;10.00;8.00;;;;;;;;5006247;28;11541;-77
2022/01/07 03:12:07;;;;;;;;;13.25;9.25;;;;;;;;5006291;28;11619;-75
2022/01/07 03:14:34;;;;;;;;;9.75;8.25;;;;;;;;5005064;28;11583;-77
2022/01/07 03:17:01;;;;;;;;;10.50;10.50;;;;;;;;5005951;28;11649;-76
2022/01/07 03:19:29;;;;;;;;;9.50;9.50;;;;;;;;5006731;28;11543;-76
2022/01/07 03:21:56;;;;;;;;;9.50;8.25;;;;;;;;4992566;28;11635;-76
2022/01/07 03:24:23;;;;;;;;;10.75;9.00;;;;;;;;5007124;28;11632;-79
2022/01/07 03:26:51;;;;;;;;;10.25;9.00;;;;;;;;5006029;28;11626;-77
2022/01/07 03:29:19;;;;;;;;;9.00;9.00;;;;;;;;5009214;28;11594;-77
2022/01/07 03:31:46;;;;;;;;;11.25;9.50;;;;;;;;5005542;28;11522;-78
2022/01/07 03:34:14;;;;;;;;;7.00;5.00;;;;;;;;5005297;28;11632;-75
2022/01/07 03:36:41;;;;;;;;;10.75;8.50;;;;;;;;5006192;28;11540;-78
2022/01/07 03:39:08;;;;;;;;;13.25;12.00;;;;;;;;5004397;28;11565;-79
2022/01/07 03:41:35;;;;;;;;;8.25;7.50;;;;;;;;5005677;28;11724;-80
2022/01/07 03:44:03;;;;;;;;;9.75;9.00;;;;;;;;5004271;28;12498;-78
2022/01/07 03:46:32;;;;;;;;;3.00;3.00;;;;;;;;5005502;28;11711;-77
2022/01/07 03:48:59;;;;;;;;;8.00;8.00;;;;;;;;5005416;28;12554;-77
2022/01/07 03:51:26;;;;;;;;;11.25;11.00;;;;;;;;5004406;28;11544;-75
2022/01/07 03:53:53;;;;;;;;;8.75;8.00;;;;;;;;5006207;28;11600;-77
2022/01/07 03:56:21;;;;;;;;;11.00;6.00;;;;;;;;5009881;28;11623;-79
2022/01/07 03:58:49;;;;;;;;;9.00;6.00;;;;;;;;5005952;28;11692;-79
2022/01/07 04:01:16;;;;;;;;;9.00;9.00;;;;;;;;5007105;28;11501;-79
2022/01/07 04:03:45;;;;;;;;;8.50;8.25;;;;;;;;5005451;28;12394;-75
2022/01/07 04:06:15;;;;;;;;;9.00;9.00;;;;;;;;5005144;28;11535;-78
2022/01/07 04:08:42;;;;;;;;;10.50;8.50;;;;;;;;5004715;28;11570;-80
2022/01/07 04:11:09;;;;;;;;;10.75;6.50;;;;;;;;5005441;28;11577;-80
2022/01/07 04:13:37;;;;;;;;;9.00;6.00;;;;;;;;5003078;28;11600;-78
2022/01/07 04:16:04;;;;;;;;;6.75;6.00;;;;;;;;5001034;28;11574;-79
2022/01/07 04:18:32;;;;;;;;;7.75;7.75;;;;;;;;5007569;28;11569;-76
2022/01/07 04:21:00;;;;;;;;;6.00;6.00;;;;;;;;5004868;28;12121;-77
2022/01/07 04:23:27;;;;;;;;;8.75;6.25;;;;;;;;5004123;28;11553;-76
2022/01/07 04:25:55;;;;;;;;;5.75;5.75;;;;;;;;5004288;28;12341;-80
2022/01/07 04:28:22;;;;;;;;;7.50;7.50;;;;;;;;5005073;28;11533;-80
2022/01/07 04:30:49;;;;;;;;;4.75;4.75;;;;;;;;5002129;28;11488;-77
2022/01/07 04:33:25;;;;;;;;;9.00;7.00;;;;;;;;5005056;28;11698;-76
2022/01/07 04:35:53;;;;;;;;;8.50;5.00;;;;;;;;5004272;28;11666;-78
2022/01/07 04:38:23;;;;;;;;;6.50;6.50;;;;;;;;5004784;28;11581;-75
2022/01/07 04:40:51;;;;;;;;;8.25;8.25;;;;;;;;5002016;28;11550;-77
2022/01/07 04:43:19;;;;;;;;;8.00;4.00;;;;;;;;5004306;28;11576;-79
2022/01/07 04:45:46;;;;;;;;;7.50;5.50;;;;;;;;5002816;28;11594;-76
2022/01/07 04:48:14;;;;;;;;;5.25;2.00;;;;;;;;5003347;28;11588;-78
2022/01/07 04:50:41;;;;;;;;;5.00;5.00;;;;;;;;5003822;28;11546;-78
2022/01/07 04:53:08;;;;;;;;;8.50;6.50;;;;;;;;5009126;28;11566;-80
2022/01/07 04:55:38;;;;;;;;;7.00;7.00;;;;;;;;5004094;28;11512;-78
2022/01/07 04:58:07;;;;;;;;;5.00;5.00;;;;;;;;5000236;28;11549;-79
2022/01/07 05:00:35;;;;;;;;;5.00;5.00;;;;;;;;5003329;28;11504;-78
2022/01/07 05:03:03;;;;;;;;;6.00;5.00;;;;;;;;5001408;28;11585;-78
2022/01/07 05:05:30;;;;;;;;;10.25;5.75;;;;;;;;5000568;28;11678;-78
2022/01/07 05:07:58;;;;;;;;;5.00;5.00;;;;;;;;5002112;28;12351;-78
2022/01/07 05:10:26;;;;;;;;;8.50;4.50;;;;;;;;5008257;28;11685;-76
2022/01/07 05:12:56;;;;;;;;;8.50;5.25;;;;;;;;5004235;28;11676;-79
2022/01/07 05:15:24;;;;;;;;;5.75;5.75;;;;;;;;5003236;28;11600;-78
2022/01/07 05:17:51;;;;;;;;;8.00;4.25;;;;;;;;5005359;28;12537;-77
2022/01/07 05:20:19;;;;;;;;;4.00;4.00;;;;;;;;5000993;28;11607;-78
2022/01/07 05:22:46;;;;;;;;;6.50;6.50;;;;;;;;5004236;28;11718;-79
2022/01/07 05:25:14;;;;;;;;;9.00;5.00;;;;;;;;5002882;28;12468;-78
2022/01/07 05:27:41;;;;;;;;;9.00;7.00;;;;;;;;5015957;28;11625;-77
2022/01/07 05:30:13;;;;;;;;;3.50;3.50;;;;;;;;5002633;28;11956;-78
2022/01/07 05:32:40;;;;;;;;;8.00;8.00;;;;;;;;4998355;28;11557;-78
2022/01/07 05:35:09;;;;;;;;;5.00;5.00;;;;;;;;5005310;28;11684;-79
2022/01/07 05:37:37;;;;;;;;;8.25;8.25;;;;;;;;5003701;28;11597;-77
2022/01/07 05:40:05;;;;;;;;;5.25;4.00;;;;;;;;5004177;28;11672;-78
2022/01/07 05:42:33;;;;;;;;;5.00;5.00;;;;;;;;5003326;28;11562;-77
2022/01/07 05:45:00;;;;;;;;;4.50;4.50;;;;;;;;5009316;28;11601;-77
2022/01/07 05:47:29;;;;;;;;;4.50;4.00;;;;;;;;5004028;28;11682;-78
2022/01/07 05:49:56;;;;;;;;;4.00;4.00;;;;;;;;5002450;28;11714;-78
2022/01/07 05:52:23;;;;;;;;;3.50;3.50;;;;;;;;5003041;28;11572;-78
2022/01/07 05:54:51;;;;;;;;;8.00;5.75;;;;;;;;5002553;28;12326;-77
2022/01/07 05:57:18;;;;;;;;;2.00;2.00;;;;;;;;5003142;28;11556;-78
2022/01/07 05:59:46;;;;;;;;;5.25;5.25;;;;;;;;5002751;28;11628;-77
2022/01/07 06:02:13;;;;;;;;;7.00;5.00;;;;;;;;5004010;28;11517;-78
2022/01/07 06:04:41;;;;;;;;;3.50;3.50;;;;;;;;5001707;28;11582;-80
2022/01/07 06:07:09;;;;;;;;;4.00;4.00;;;;;;;;5003044;28;11595;-78
2022/01/07 06:09:36;;;;;;;;;4.75;4.00;;;;;;;;5004348;28;11531;-77
2022/01/07 06:12:03;;;;;;;;;6.50;5.00;;;;;;;;5002434;28;12375;-78
2022/01/07 06:14:31;;;;;;;;;6.00;5.00;;;;;;;;5003282;28;11554;-80
2022/01/07 06:16:58;;;;;;;;;6.50;5.00;;;;;;;;5003069;28;12298;-79
2022/01/07 06:19:25;;;;;;;;;4.00;4.00;;;;;;;;5009954;28;11669;-75
2022/01/07 06:21:54;;;;;;;;;4.50;4.50;;;;;;;;5000780;28;11586;-76
2022/01/07 06:24:21;;;;;;;;;5.50;5.50;;;;;;;;5003582;28;11516;-79
2022/01/07 06:26:48;;;;;;;;;4.00;4.00;;;;;;;;4999671;28;11697;-72
2022/01/07 06:29:16;;;;;;;;;6.00;4.25;;;;;;;;5000185;28;12820;-72
2022/01/07 06:31:43;;;;;;;;;5.25;5.00;;;;;;;;5000720;28;11495;-73
2022/01/07 06:34:10;;;;;;;;;7.00;4.75;;;;;;;;5001374;28;11518;-77
2022/01/07 06:36:38;;;;;;;;;5.75;4.50;;;;;;;;4999444;28;11508;-74
2022/01/07 06:39:07;;;;;;;;;4.75;4.75;;;;;;;;5000870;28;11532;-74
2022/01/07 06:41:34;;;;;;;;;4.75;4.75;;;;;;;;5002058;28;11564;-75
2022/01/07 06:44:01;;;;;;;;;4.75;4.00;;;;;;;;5002030;28;11552;-72
2022/01/07 06:46:28;;;;;;;;;4.00;2.00;;;;;;;;5003869;28;12866;-74
2022/01/07 06:48:56;;;;;;;;;4.50;2.50;;;;;;;;5002130;28;11547;-76
2022/01/07 06:51:23;;;;;;;;;4.00;4.00;;;;;;;;4987719;28;11569;-74
2022/01/07 06:53:50;;;;;;;;;4.00;4.00;;;;;;;;5006151;28;11693;-74
2022/01/07 06:56:19;;;;;;;;;3.50;3.50;;;;;;;;5004589;28;12232;-74
2022/01/07 06:58:46;;;;;;;;;5.00;5.00;;;;;;;;5005733;28;11547;-74
2022/01/07 07:01:13;;;;;;;;;6.50;6.00;;;;;;;;5004643;28;11645;-74
2022/01/07 07:03:41;;;;;;;;;6.50;5.00;;;;;;;;5005050;28;11556;-73
2022/01/07 07:06:08;;;;;;;;;7.00;5.00;;;;;;;;5006016;28;11540;-75
2022/01/07 07:08:36;;;;;;;;;4.75;4.75;;;;;;;;5005114;28;11802;-75
2022/01/07 07:11:03;;;;;;;;;8.00;5.00;;;;;;;;5005833;28;11652;-73
2022/01/07 07:13:32;;;;;;;;;5.00;4.00;;;;;;;;5005057;28;11574;-73
2022/01/07 07:15:59;;;;;;;;;9.00;7.00;;;;;;;;5002805;28;11658;-74
2022/01/07 07:18:26;;;;;;;;;12.00;8.50;;;;;;;;5005402;28;11588;-74
2022/01/07 07:20:53;;;;;;;;;7.50;7.50;;;;;;;;5005124;28;11690;-72
2022/01/07 07:23:21;;;;;;;;;9.25;8.50;;;;;;;;5005451;28;11521;-74
2022/01/07 07:25:49;;;;;;;;;8.75;8.75;;;;;;;;5004680;28;11585;-74
2022/01/07 07:28:16;;;;;;;;;9.00;9.00;;;;;;;;5006133;28;11624;-74
2022/01/07 07:30:45;;;;;;;;;8.25;8.25;;;;;;;;5004081;28;11546;-74
2022/01/07 07:33:32;;;;;;;;;16.00;11.75;;;;;;;;5004900;28;11946;-76
2022/01/07 07:38:46;;;;;;;;;14.75;11.25;;;;;;;;5005131;28;12311;-74
2022/01/07 07:41:13;;;;;;;;;8.75;8.00;;;;;;;;4993161;28;11721;-73
2022/01/07 07:43:42;;;;;;;;;10.00;10.00;;;;;;;;5004913;28;12428;-73
2022/01/07 07:46:11;;;;;;;;;12.00;12.00;;;;;;;;5006219;28;11748;-73
2022/01/07 07:48:38;;;;;;;;;15.25;12.00;;;;;;;;5005783;28;11625;-73
2022/01/07 07:51:06;;;;;;;;;13.00;13.00;;;;;;;;5006086;28;11608;-73
2022/01/07 07:53:33;;;;;;;;;12.00;12.00;;;;;;;;5004009;28;11625;-73
2022/01/07 07:56:00;;;;;;;;;9.25;9.00;;;;;;;;5009085;28;11645;-73
2022/01/07 07:58:28;;;;;;;;;8.50;8.50;;;;;;;;5003752;28;11597;-73
2022/01/07 08:00:56;;;;;;;;;12.00;9.50;;;;;;;;4999808;28;11517;-74
2022/01/07 08:03:26;;;;;;;;;20.00;17.50;;;;;;;;5000614;28;11634;-74
2022/01/07 08:05:53;;;;;;;;;7.00;7.00;;;;;;;;5004857;28;11688;-73
2022/01/07 08:08:20;;;;;;;;;11.50;9.75;;;;;;;;5004684;28;11680;-74
2022/01/07 08:10:50;;;;;;;;;14.75;10.75;;;;;;;;5005310;28;12375;-73
2022/01/07 08:13:28;;;;;;;;;9.50;9.50;;;;;;;;5005715;28;11731;-74
2022/01/07 08:15:58;;;;;;;;;10.00;8.00;;;;;;;;5005722;28;11596;-75
2022/01/07 08:18:27;;;;;;;;;15.75;11.75;;;;;;;;5005771;28;12505;-74
2022/01/07 08:20:54;;;;;;;;;11.00;10.50;;;;;;;;5005562;28;11610;-74
2022/01/07 08:23:22;;;;;;;;;9.50;9.50;;;;;;;;5005435;28;12412;-74
2022/01/07 08:25:49;;;;;;;;;10.00;7.50;;;;;;;;5005678;28;11729;-74
2022/01/07 08:28:17;;;;;;;;;18.25;11.50;;;;;;;;5005169;28;11590;-74
2022/01/07 08:31:01;;;;;;;;;13.50;10.75;;;;;;;;5004055;28;12440;-74
2022/01/07 08:36:16;;;;;;;;;16.50;16.50;;;;;;;;5004635;28;11579;-74
2022/01/07 08:38:43;;;;;;;;;9.00;9.00;;;;;;;;4999779;28;11649;-74
2022/01/07 08:41:11;;;;;;;;;9.75;9.00;;;;;;;;5002107;28;11557;-74
2022/01/07 08:43:39;;;;;;;;;10.00;10.00;;;;;;;;5005020;28;11723;-74
2022/01/07 08:46:06;;;;;;;;;8.75;8.75;;;;;;;;5005331;28;11549;-74
2022/01/07 08:48:36;;;;;;;;;9.25;9.25;;;;;;;;5004815;28;11558;-74
2022/01/07 08:51:04;;;;;;;;;8.75;8.75;;;;;;;;5005829;28;12478;-74
2022/01/07 08:53:31;;;;;;;;;12.50;12.50;;;;;;;;5004732;28;11579;-74
2022/01/07 08:55:58;;;;;;;;;9.25;8.00;;;;;;;;5008481;28;11725;-74
2022/01/07 08:58:26;;;;;;;;;8.50;8.50;;;;;;;;5004577;28;11573;-74
2022/01/07 09:00:53;;;;;;;;;8.75;7.00;;;;;;;;4999644;28;12394;-74
2022/01/07 09:03:20;;;;;;;;;6.50;5.75;;;;;;;;5001272;28;11695;-75
2022/01/07 09:05:49;;;;;;;;;5.75;5.25;;;;;;;;5002189;28;11689;-74
2022/01/07 09:08:16;;;;;;;;;6.25;5.25;;;;;;;;5002933;28;11567;-74
2022/01/07 09:10:44;;;;;;;;;5.00;5.00;;;;;;;;5011119;28;11574;-74
2022/01/07 09:13:12;;;;;;;;;7.75;5.00;;;;;;;;5004718;28;11516;-74
2022/01/07 09:15:40;;;;;;;;;2.50;2.50;;;;;;;;5003541;28;11583;-74
2022/01/07 09:18:10;;;;;;;;;4.00;4.00;;;;;;;;5003244;28;11520;-74
2022/01/07 09:20:38;;;;;;;;;3.00;3.00;;;;;;;;5004022;28;11510;-74
2022/01/07 09:23:07;;;;;;;;;9.75;4.50;;;;;;;;5003541;28;11840;-75
2022/01/07 09:25:34;;;;;;;;;2.50;2.50;;;;;;;;5005941;28;11495;-74
2022/01/07 09:28:02;;;;;;;;;3.50;2.00;;;;;;;;5003165;28;11481;-74
2022/01/07 09:30:29;;;;;;;;;3.00;3.00;;;;;;;;5003339;28;11505;-75
2022/01/07 09:32:56;;;;;;;;;3.25;3.00;;;;;;;;5012800;28;11550;-74
2022/01/07 09:35:23;;;;;;;;;2.00;2.00;;;;;;;;5004525;28;11528;-74
2022/01/07 09:37:51;;;;;;;;;2.00;2.00;;;;;;;;4994242;28;11469;-74
2022/01/07 09:40:20;;;;;;;;;3.00;2.00;;;;;;;;5003382;28;11494;-74
2022/01/07 09:42:58;;;;;;;;;2.50;2.50;;;;;;;;5010770;28;11492;-74
2022/01/07 09:45:26;;;;;;;;;4.25;2.00;;;;;;;;5000221;28;11510;-74
2022/01/07 09:47:54;;;;;;;;;4.25;1.25;;;;;;;;5004757;28;11505;-74
2022/01/07 09:50:21;;;;;;;;;4.00;2.00;;;;;;;;5003173;28;11582;-74
2022/01/07 09:52:49;;;;;;;;;5.00;1.00;;;;;;;;5002241;28;11492;-74
2022/01/07 09:55:17;;;;;;;;;1.00;1.00;;;;;;;;5006343;28;11460;-74
2022/01/07 09:57:45;;;;;;;;;3.75;2.00;;;;;;;;5003177;28;11505;-74
2022/01/07 10:00:14;;;;;;;;;2.00;2.00;;;;;;;;5004083;28;11500;-74
2022/01/07 10:02:59;;;;;;;;;1.00;1.00;;;;;;;;4998840;28;11504;-74
2022/01/07 10:05:27;;;;;;;;;0.00;0.00;;;;;;;;5003981;28;12300;-75
2022/01/07 10:07:54;;;;;;;;;1.00;1.00;;;;;;;;5003057;28;11543;-74
2022/01/07 10:10:21;;;;;;;;;0.00;0.00;;;;;;;;5003758;28;11214;-74
2022/01/07 10:12:59;;;;;;;;;1.25;0.00;;;;;;;;5004102;28;11198;-74
2022/01/07 10:15:29;;;;;;;;;0.25;0.25;;;;;;;;5003603;28;10992;-74
2022/01/07 10:18:01;;;;;;;;;0.25;0.25;;;;;;;;5004503;28;11084;-75
2022/01/07 10:20:30;;;;;;;;;1.75;0.00;;;;;;;;5002785;28;10976;-75
2022/01/07 10:23:00;;;;;;;;;0.75;0.75;;;;;;;;5008123;28;11194;-75
2022/01/07 10:25:29;;;;;;;;;0.00;0.00;;;;;;;;5007581;28;11640;-75
2022/01/07 10:28:06;;;;;;;;;0.00;0.00;;;;;;;;5006955;28;11570;-75
2022/01/07 10:30:36;;;;;;;;;1.00;1.00;;;;;;;;4994967;28;10611;-75
2022/01/07 10:33:17;;;;;;;;;0.00;0.00;;;;;;;;5012874;28;10764;-75
2022/01/07 10:35:44;;;;;;;;;0.00;0.00;;;;;;;;5007842;28;10712;-75
2022/01/07 10:38:17;;;;;;;;;0.00;0.00;;;;;;;;5006495;28;10817;-75
2022/01/07 10:40:44;;;;;;;;;0.00;0.00;;;;;;;;5007354;28;10691;-75
2022/01/07 10:43:18;;;;;;;;;2.25;0.00;;;;;;;;5007666;28;10613;-76
2022/01/07 10:45:47;;;;;;;;;2.00;0.00;;;;;;;;5006561;28;10632;-75
2022/01/07 10:48:15;;;;;;;;;0.00;0.00;;;;;;;;5008272;28;10820;-75
2022/01/07 10:50:43;;;;;;;;;0.00;0.00;;;;;;;;4998354;28;10677;-75
2022/01/07 10:53:28;;;;;;;;;1.00;0.00;;;;;;;;5006474;28;10772;-74
2022/01/07 10:56:04;;;;;;;;;0.00;0.00;;;;;;;;5016446;28;10764;-76
2022/01/07 10:58:57;;;;;;;;;2.00;0.00;;;;;;;;5006929;28;11594;-76
2022/01/07 11:01:43;;;;;;;;;1.25;0.00;;;;;;;;5005046;28;10709;-75
2022/01/07 11:04:13;;;;;;;;;1.00;1.00;;;;;;;;5006239;28;10705;-76
2022/01/07 11:06:44;;;;;;;;;0.00;0.00;;;;;;;;5011791;28;10598;-74
2022/01/07 11:09:13;;;;;;;;;0.00;0.00;;;;;;;;5006519;28;10768;-75
2022/01/07 11:11:51;;;;;;;;;0.00;0.00;;;;;;;;5006280;28;10502;-75
2022/01/07 11:14:23;;;;;;;;;1.00;1.00;;;;;;;;5006889;28;11365;-74
2022/01/07 11:16:51;;;;;;;;;0.75;0.50;;;;;;;;5005376;28;10628;-74
2022/01/07 11:19:23;;;;;;;;;0.00;0.00;;;;;;;;5007397;28;10614;-74
2022/01/07 11:21:53;;;;;;;;;0.00;0.00;;;;;;;;5006292;28;10658;-74
2022/01/07 11:24:38;;;;;;;;;0.00;0.00;;;;;;;;5007066;28;10854;-74
2022/01/07 11:27:07;;;;;;;;;1.75;0.00;;;;;;;;5002212;28;10765;-75
2022/01/07 11:29:41;;;;;;;;;0.00;0.00;;;;;;;;5005636;28;10868;-78
2022/01/07 11:32:37;;;;;;;;;0.00;0.00;;;;;;;;5009711;28;10883;-74
2022/01/07 11:35:45;;;;;;;;;0.00;0.00;;;;;;;;4999146;28;11013;-74
2022/01/07 11:38:34;;;;;;;;;0.50;0.50;;;;;;;;5001312;28;10944;-73
2022/01/07 11:41:02;;;;;;;;;0.00;0.00;;;;;;;;4998531;28;11046;-75
2022/01/07 11:43:35;;;;;;;;;0.00;0.00;;;;;;;;5004500;28;10941;-76
2022/01/07 11:46:22;;;;;;;;;2.00;0.00;;;;;;;;5003602;28;11018;-75
2022/01/07 11:48:50;;;;;;;;;0.00;0.00;;;;;;;;5003612;28;10933;-74
2022/01/07 11:51:19;;;;;;;;;2.75;1.00;;;;;;;;5008095;28;10999;-76
2022/01/07 11:54:08;;;;;;;;;0.00;0.00;;;;;;;;5006202;28;10849;-76
2022/01/07 11:56:37;;;;;;;;;0.00;0.00;;;;;;;;5004745;28;11555;-74
2022/01/07 11:59:15;;;;;;;;;2.00;1.00;;;;;;;;5007538;28;10717;-75
2022/01/07 12:01:44;;;;;;;;;0.00;0.00;;;;;;;;5004439;28;10623;-75
2022/01/07 12:04:28;;;;;;;;;0.00;0.00;;;;;;;;5005194;28;10660;-74
2022/01/07 12:06:56;;;;;;;;;0.00;0.00;;;;;;;;5005733;28;10614;-78
2022/01/07 12:09:30;;;;;;;;;1.00;0.00;;;;;;;;5004096;28;10578;-75
2022/01/07 12:11:59;;;;;;;;;0.00;0.00;;;;;;;;5005661;28;11380;-74
2022/01/07 12:14:29;;;;;;;;;1.00;0.00;;;;;;;;5008354;28;10358;-75
2022/01/07 12:16:59;;;;;;;;;0.00;0.00;;;;;;;;5007634;28;10395;-74
2022/01/07 12:20:00;;;;;;;;;0.00;0.00;;;;;;;;5006651;28;10503;-74
2022/01/07 12:22:27;;;;;;;;;0.00;0.00;;;;;;;;5004603;28;10488;-74
2022/01/07 12:24:59;;;;;;;;;0.25;0.00;;;;;;;;5005781;28;11221;-75
2022/01/07 12:27:27;;;;;;;;;1.50;0.00;;;;;;;;5003284;28;10500;-74
2022/01/07 12:29:56;;;;;;;;;0.00;0.00;;;;;;;;5004266;28;10473;-76
2022/01/07 12:32:32;;;;;;;;;0.00;0.00;;;;;;;;5005049;28;10379;-76
2022/01/07 12:35:00;;;;;;;;;0.00;0.00;;;;;;;;5004567;28;10365;-76
2022/01/07 12:37:27;;;;;;;;;0.75;0.00;;;;;;;;5004611;28;10409;-75
2022/01/07 12:39:56;;;;;;;;;0.00;0.00;;;;;;;;5003103;28;10435;-74
2022/01/07 12:42:24;;;;;;;;;0.00;0.00;;;;;;;;5004877;28;10127;-74
2022/01/07 12:44:54;;;;;;;;;0.00;0.00;;;;;;;;5004363;28;10106;-75
2022/01/07 12:47:23;;;;;;;;;0.00;0.00;;;;;;;;5003021;28;10300;-75
2022/01/07 12:49:55;;;;;;;;;0.00;0.00;;;;;;;;5005893;28;10097;-74
2022/01/07 12:52:24;;;;;;;;;0.00;0.00;;;;;;;;4995532;28;10998;-74
2022/01/07 12:54:54;;;;;;;;;0.00;0.00;;;;;;;;5007965;28;10231;-74
2022/01/07 12:57:33;;;;;;;;;0.00;0.00;;;;;;;;5007164;28;10195;-75
2022/01/07 13:00:06;;;;;;;;;0.00;0.00;;;;;;;;5004982;28;10130;-74
2022/01/07 13:02:33;;;;;;;;;0.00;0.00;;;;;;;;4994369;28;10117;-74
2022/01/07 13:05:16;;;;;;;;;1.00;0.00;;;;;;;;5004764;28;10046;-75
2022/01/07 13:07:43;;;;;;;;;0.00;0.00;;;;;;;;4994416;28;10089;-74
2022/01/07 13:10:12;;;;;;;;;0.00;0.00;;;;;;;;5003386;28;10997;-74
2022/01/07 13:12:40;;;;;;;;;0.00;0.00;;;;;;;;5005193;28;10074;-74
2022/01/07 13:15:08;;;;;;;;;1.00;0.00;;;;;;;;5003969;28;10154;-74
2022/01/07 13:17:35;;;;;;;;;1.00;0.00;;;;;;;;5004834;28;10182;-74
2022/01/07 13:20:03;;;;;;;;;0.00;0.00;;;;;;;;5004890;28;10186;-74
2022/01/07 13:22:31;;;;;;;;;0.00;0.00;;;;;;;;5004479;28;10259;-74
2022/01/07 13:24:59;;;;;;;;;0.00;0.00;;;;;;;;5004854;28;10127;-74
2022/01/07 13:27:26;;;;;;;;;0.00;0.00;;;;;;;;5003412;28;10194;-74
2022/01/07 13:29:55;;;;;;;;;0.00;0.00;;;;;;;;5004516;28;10171;-74
2022/01/07 13:32:25;;;;;;;;;0.00;0.00;;;;;;;;5003256;28;10134;-74
2022/01/07 13:34:52;;;;;;;;;0.75;0.00;;;;;;;;5003741;28;10989;-75
2022/01/07 13:37:20;;;;;;;;;0.00;0.00;;;;;;;;4991960;28;10119;-74
2022/01/07 13:39:51;;;;;;;;;1.00;0.00;;;;;;;;4990974;28;10196;-74
2022/01/07 13:42:23;;;;;;;;;0.00;0.00;;;;;;;;5004150;28;10180;-75
2022/01/07 13:44:56;;;;;;;;;0.00;0.00;;;;;;;;5003182;28;10173;-75
2022/01/07 13:47:26;;;;;;;;;0.00;0.00;;;;;;;;5004119;28;10033;-75
2022/01/07 13:50:03;;;;;;;;;0.00;0.00;;;;;;;;5003037;28;10111;-75
2022/01/07 13:52:33;;;;;;;;;0.00;0.00;;;;;;;;5003880;28;10070;-75
2022/01/07 13:55:02;;;;;;;;;0.00;0.00;;;;;;;;5007756;28;9914;-74
2022/01/07 13:57:31;;;;;;;;;0.00;0.00;;;;;;;;4995699;28;9953;-74
2022/01/07 13:59:59;;;;;;;;;0.00;0.00;;;;;;;;5004116;28;9898;-74
2022/01/07 14:02:28;;;;;;;;;1.00;0.00;;;;;;;;4992379;28;9737;-74
2022/01/07 14:04:57;;;;;;;;;0.00;0.00;;;;;;;;5004275;28;10692;-75
2022/01/07 14:07:31;;;;;;;;;0.00;0.00;;;;;;;;5001632;28;9964;-74
2022/01/07 14:10:25;;;;;;;;;0.00;0.00;;;;;;;;5001530;28;9989;-74
2022/01/07 14:12:55;;;;;;;;;0.00;0.00;;;;;;;;5001630;28;9932;-74
2022/01/07 14:15:24;;;;;;;;;0.00;0.00;;;;;;;;5014519;28;10430;-74
2022/01/07 14:18:03;;;;;;;;;0.00;0.00;;;;;;;;5004262;28;10440;-74
2022/01/07 14:20:43;;;;;;;;;0.00;0.00;;;;;;;;5003823;28;10220;-74
2022/01/07 14:23:12;;;;;;;;;0.00;0.00;;;;;;;;5001698;28;10194;-74
2022/01/07 14:25:41;;;;;;;;;0.00;0.00;;;;;;;;5004193;28;10158;-74
2022/01/07 14:28:09;;;;;;;;;0.00;0.00;;;;;;;;5003245;28;10387;-74
2022/01/07 14:30:36;;;;;;;;;0.00;0.00;;;;;;;;5003648;28;10435;-74
2022/01/07 14:33:04;;;;;;;;;0.00;0.00;;;;;;;;4999777;28;10597;-74
2022/01/07 14:35:31;;;;;;;;;0.00;0.00;;;;;;;;5003787;28;10479;-74
2022/01/07 14:37:58;;;;;;;;;0.00;0.00;;;;;;;;5003492;28;10605;-74
2022/01/07 14:40:25;;;;;;;;;0.00;0.00;;;;;;;;5003578;28;10553;-74
2022/01/07 14:42:54;;;;;;;;;0.00;0.00;;;;;;;;5003289;28;10655;-74
2022/01/07 14:45:22;;;;;;;;;0.00;0.00;;;;;;;;5003085;28;10823;-73
2022/01/07 14:47:50;;;;;;;;;0.00;0.00;;;;;;;;5009160;28;10740;-73
2022/01/07 14:50:18;;;;;;;;;0.00;0.00;;;;;;;;5011651;28;10912;-73
2022/01/07 14:52:45;;;;;;;;;0.00;0.00;;;;;;;;5003452;28;10933;-73
2022/01/07 14:55:13;;;;;;;;;0.00;0.00;;;;;;;;5005072;28;10990;-73